Terminal Aerodrome Forecast
Issued by NWS Billings, MT

Home | Current Version | Previous Version | Text Only | Print | Product List | Glossary On
Versions: 1 2 3 4 5 6 7 8 9 10 11 12
000
FTUS45 KBYZ 170521
TAFSHR
TAF
KSHR 170521Z 1706/1806 VRB05KT P6SM FEW120
     FM171800 32010G18KT P6SM SCT100
     FM180100 31006KT P6SM FEW100=

USA.gov is the U.S. government's official web portal to all federal, state and local government web resources and services.